sensor_id;sensor_type;location;lat;lon;timestamp;pressure;altitude;pressure_sealevel;temperature;humidity
18527;BME280;9393;42.158;24.748;2023-04-28T00:00:23;99741.03;;;13.76;42.40
18527;BME280;9393;42.158;24.748;2023-04-28T00:03:26;99747.09;;;13.77;42.30
18527;BME280;9393;42.158;24.748;2023-04-28T00:06:30;99747.53;;;13.64;42.78
18527;BME280;9393;42.158;24.748;2023-04-28T00:09:34;99742.22;;;13.48;41.89
18527;BME280;9393;42.158;24.748;2023-04-28T00:12:38;99733.75;;;13.62;41.00
18527;BME280;9393;42.158;24.748;2023-04-28T00:15:43;99743.50;;;13.44;41.45
18527;BME280;9393;42.158;24.748;2023-04-28T00:18:47;99734.91;;;13.59;41.11
18527;BME280;9393;42.158;24.748;2023-04-28T00:21:51;99744.47;;;13.43;41.36
18527;BME280;9393;42.158;24.748;2023-04-28T00:24:55;99750.09;;;13.56;41.24
18527;BME280;9393;42.158;24.748;2023-04-28T00:27:58;99745.94;;;13.71;40.88
18527;BME280;9393;42.158;24.748;2023-04-28T00:31:09;99735.50;;;13.87;40.60
18527;BME280;9393;42.158;24.748;2023-04-28T00:34:13;99745.81;;;13.81;41.00
18527;BME280;9393;42.158;24.748;2023-04-28T00:37:18;99741.84;;;13.77;41.06
18527;BME280;9393;42.158;24.748;2023-04-28T00:40:22;99737.44;;;13.43;41.67
18527;BME280;9393;42.158;24.748;2023-04-28T00:43:26;99745.06;;;13.62;41.86
18527;BME280;9393;42.158;24.748;2023-04-28T00:46:32;99744.97;;;13.72;41.47
18527;BME280;9393;42.158;24.748;2023-04-28T00:49:36;99745.88;;;13.63;42.07
18527;BME280;9393;42.158;24.748;2023-04-28T00:52:42;99744.00;;;13.47;42.71
18527;BME280;9393;42.158;24.748;2023-04-28T00:55:46;99744.53;;;13.51;42.66
18527;BME280;9393;42.158;24.748;2023-04-28T00:58:50;99748.13;;;13.50;42.90
18527;BME280;9393;42.158;24.748;2023-04-28T01:01:55;99746.34;;;13.58;43.13
18527;BME280;9393;42.158;24.748;2023-04-28T01:05:00;99756.13;;;13.48;43.22
18527;BME280;9393;42.158;24.748;2023-04-28T01:08:04;99753.09;;;13.35;43.51
18527;BME280;9393;42.158;24.748;2023-04-28T01:11:09;99751.44;;;13.60;43.39
18527;BME280;9393;42.158;24.748;2023-04-28T01:14:41;99742.22;;;13.48;43.79
18527;BME280;9393;42.158;24.748;2023-04-28T01:17:47;99752.84;;;13.46;44.21
18527;BME280;9393;42.158;24.748;2023-04-28T01:20:52;99750.91;;;13.23;44.76
18527;BME280;9393;42.158;24.748;2023-04-28T01:23:58;99745.78;;;13.21;44.76
18527;BME280;9393;42.158;24.748;2023-04-28T01:27:02;99756.31;;;12.86;45.70
18527;BME280;9393;42.158;24.748;2023-04-28T01:30:07;99755.00;;;13.25;45.09
18527;BME280;9393;42.158;24.748;2023-04-28T01:33:11;99752.69;;;13.22;45.44
18527;BME280;9393;42.158;24.748;2023-04-28T01:36:15;99756.06;;;12.79;46.81
18527;BME280;9393;42.158;24.748;2023-04-28T01:39:21;99754.28;;;13.15;46.00
18527;BME280;9393;42.158;24.748;2023-04-28T01:42:25;99748.13;;;13.06;46.36
18527;BME280;9393;42.158;24.748;2023-04-28T01:45:28;99756.13;;;13.05;46.54
18527;BME280;9393;42.158;24.748;2023-04-28T01:48:33;99753.16;;;12.47;47.79
18527;BME280;9393;42.158;24.748;2023-04-28T01:51:37;99761.25;;;12.71;47.63
18527;BME280;9393;42.158;24.748;2023-04-28T01:54:43;99765.84;;;12.42;48.18
18527;BME280;9393;42.158;24.748;2023-04-28T01:57:47;99759.59;;;12.52;48.08
18527;BME280;9393;42.158;24.748;2023-04-28T02:00:51;99755.59;;;11.86;49.30
18527;BME280;9393;42.158;24.748;2023-04-28T02:03:56;99763.94;;;12.44;48.22
18527;BME280;9393;42.158;24.748;2023-04-28T02:07:00;99765.72;;;12.43;47.81
18527;BME280;9393;42.158;24.748;2023-04-28T02:10:06;99763.19;;;12.06;48.63
18527;BME280;9393;42.158;24.748;2023-04-28T02:13:10;99767.34;;;11.99;48.68
18527;BME280;9393;42.158;24.748;2023-04-28T02:16:14;99770.88;;;12.08;48.45
18527;BME280;9393;42.158;24.748;2023-04-28T02:19:18;99765.16;;;11.95;48.96
18527;BME280;9393;42.158;24.748;2023-04-28T02:22:22;99766.19;;;11.84;48.95
18527;BME280;9393;42.158;24.748;2023-04-28T02:25:27;99760.53;;;11.89;48.51
18527;BME280;9393;42.158;24.748;2023-04-28T02:28:31;99766.19;;;11.84;48.49
18527;BME280;9393;42.158;24.748;2023-04-28T02:31:35;99774.97;;;11.83;48.25
18527;BME280;9393;42.158;24.748;2023-04-28T02:34:39;99779.56;;;11.72;48.75
18527;BME280;9393;42.158;24.748;2023-04-28T02:37:43;99776.22;;;11.89;48.24
18527;BME280;9393;42.158;24.748;2023-04-28T02:40:56;99779.00;;;11.68;48.49
18527;BME280;9393;42.158;24.748;2023-04-28T02:44:00;99778.75;;;11.52;48.97
18527;BME280;9393;42.158;24.748;2023-04-28T02:47:04;99779.00;;;11.58;48.48
18527;BME280;9393;42.158;24.748;2023-04-28T02:50:09;99773.25;;;11.55;48.30
18527;BME280;9393;42.158;24.748;2023-04-28T02:53:13;99784.31;;;11.39;48.51
18527;BME280;9393;42.158;24.748;2023-04-28T02:56:18;99786.13;;;11.00;49.15
18527;BME280;9393;42.158;24.748;2023-04-28T02:59:23;99789.19;;;10.96;49.31
18527;BME280;9393;42.158;24.748;2023-04-28T03:02:28;99784.59;;;11.36;47.79
18527;BME280;9393;42.158;24.748;2023-04-28T03:05:32;99785.94;;;11.50;47.64
18527;BME280;9393;42.158;24.748;2023-04-28T03:08:36;99792.44;;;11.27;47.86
18527;BME280;9393;42.158;24.748;2023-04-28T03:11:41;99801.66;;;11.11;48.34
18527;BME280;9393;42.158;24.748;2023-04-28T03:14:45;99801.91;;;11.18;48.13
18527;BME280;9393;42.158;24.748;2023-04-28T03:17:50;99803.69;;;11.37;47.31
18527;BME280;9393;42.158;24.748;2023-04-28T03:20:54;99807.38;;;11.44;46.87
18527;BME280;9393;42.158;24.748;2023-04-28T03:24:00;99804.53;;;11.37;47.01
18527;BME280;9393;42.158;24.748;2023-04-28T03:27:08;99815.31;;;11.52;46.70
18527;BME280;9393;42.158;24.748;2023-04-28T03:30:12;99818.56;;;11.27;47.15
18527;BME280;9393;42.158;24.748;2023-04-28T03:33:16;99828.03;;;11.37;46.85
18527;BME280;9393;42.158;24.748;2023-04-28T03:36:20;99840.94;;;11.20;47.28
18527;BME280;9393;42.158;24.748;2023-04-28T03:39:23;99853.16;;;10.90;48.14
18527;BME280;9393;42.158;24.748;2023-04-28T03:42:29;99854.53;;;11.33;46.89
18527;BME280;9393;42.158;24.748;2023-04-28T03:45:42;99854.75;;;11.58;46.32
18527;BME280;9393;42.158;24.748;2023-04-28T03:48:45;99861.59;;;11.98;45.58
18527;BME280;9393;42.158;24.748;2023-04-28T03:51:50;99861.06;;;12.22;45.02
18527;BME280;9393;42.158;24.748;2023-04-28T03:54:54;99870.00;;;12.29;44.86
18527;BME280;9393;42.158;24.748;2023-04-28T03:57:59;99881.94;;;12.58;43.65
18527;BME280;9393;42.158;24.748;2023-04-28T04:01:03;99886.25;;;12.77;43.52
18527;BME280;9393;42.158;24.748;2023-04-28T04:04:07;99884.84;;;13.00;43.00
18527;BME280;9393;42.158;24.748;2023-04-28T04:07:11;99893.41;;;13.02;43.04
18527;BME280;9393;42.158;24.748;2023-04-28T04:10:15;99888.28;;;12.83;43.14
18527;BME280;9393;42.158;24.748;2023-04-28T04:13:21;99897.38;;;12.79;43.22
18527;BME280;9393;42.158;24.748;2023-04-28T04:16:25;99903.41;;;12.89;43.09
18527;BME280;9393;42.158;24.748;2023-04-28T04:19:31;99906.19;;;12.60;43.76
18527;BME280;9393;42.158;24.748;2023-04-28T04:22:35;99907.16;;;12.59;43.77
18527;BME280;9393;42.158;24.748;2023-04-28T04:25:39;99904.88;;;12.74;43.25
18527;BME280;9393;42.158;24.748;2023-04-28T04:28:45;99908.25;;;12.30;44.09
18527;BME280;9393;42.158;24.748;2023-04-28T04:31:49;99913.31;;;12.68;43.43
18527;BME280;9393;42.158;24.748;2023-04-28T04:34:53;99906.75;;;12.82;42.80
18527;BME280;9393;42.158;24.748;2023-04-28T04:37:59;99910.88;;;12.30;43.81
18527;BME280;9393;42.158;24.748;2023-04-28T04:41:03;99916.50;;;12.89;42.64
18527;BME280;9393;42.158;24.748;2023-04-28T04:44:09;99914.88;;;13.06;42.69
18527;BME280;9393;42.158;24.748;2023-04-28T04:47:19;99925.41;;;13.24;42.50
18527;BME280;9393;42.158;24.748;2023-04-28T04:50:24;99920.44;;;13.21;41.87
18527;BME280;9393;42.158;24.748;2023-04-28T04:53:28;99927.03;;;13.42;41.82
18527;BME280;9393;42.158;24.748;2023-04-28T04:56:32;99937.81;;;13.39;41.97
18527;BME280;9393;42.158;24.748;2023-04-28T04:59:38;99937.06;;;13.47;41.71
18527;BME280;9393;42.158;24.748;2023-04-28T05:02:46;99954.19;;;13.59;41.41
18527;BME280;9393;42.158;24.748;2023-04-28T05:05:52;99937.25;;;13.89;40.91
18527;BME280;9393;42.158;24.748;2023-04-28T05:09:12;99946.09;;;13.70;41.06
18527;BME280;9393;42.158;24.748;2023-04-28T05:12:16;99960.09;;;13.79;41.33
18527;BME280;9393;42.158;24.748;2023-04-28T05:15:21;99960.63;;;13.82;41.41
18527;BME280;9393;42.158;24.748;2023-04-28T05:18:45;99958.66;;;13.84;41.38
18527;BME280;9393;42.158;24.748;2023-04-28T05:21:50;99961.34;;;13.92;41.11
18527;BME280;9393;42.158;24.748;2023-04-28T05:24:57;99960.91;;;14.23;40.46
18527;BME280;9393;42.158;24.748;2023-04-28T05:28:01;99966.66;;;14.26;40.52
18527;BME280;9393;42.158;24.748;2023-04-28T05:31:10;99967.75;;;14.15;40.65
18527;BME280;9393;42.158;24.748;2023-04-28T05:34:14;99978.72;;;14.37;39.81
18527;BME280;9393;42.158;24.748;2023-04-28T05:37:18;99981.88;;;14.40;39.43
18527;BME280;9393;42.158;24.748;2023-04-28T05:40:22;99983.56;;;14.32;39.76
18527;BME280;9393;42.158;24.748;2023-04-28T05:43:26;99976.50;;;14.50;39.53
18527;BME280;9393;42.158;24.748;2023-04-28T05:46:32;99978.50;;;14.30;40.15
18527;BME280;9393;42.158;24.748;2023-04-28T05:49:37;99992.00;;;14.61;39.32
18527;BME280;9393;42.158;24.748;2023-04-28T05:52:42;99986.44;;;14.21;40.12
18527;BME280;9393;42.158;24.748;2023-04-28T05:55:45;99988.47;;;14.86;39.28
18527;BME280;9393;42.158;24.748;2023-04-28T05:58:50;99991.56;;;15.24;38.75
18527;BME280;9393;42.158;24.748;2023-04-28T06:01:55;99993.59;;;14.54;39.13
18527;BME280;9393;42.158;24.748;2023-04-28T06:04:59;99985.25;;;15.00;38.61
18527;BME280;9393;42.158;24.748;2023-04-28T06:08:04;99992.69;;;15.21;38.73
18527;BME280;9393;42.158;24.748;2023-04-28T06:11:09;99989.88;;;15.06;38.61
18527;BME280;9393;42.158;24.748;2023-04-28T06:14:16;99984.69;;;15.39;38.17
18527;BME280;9393;42.158;24.748;2023-04-28T06:17:21;99991.66;;;15.72;37.97
18527;BME280;9393;42.158;24.748;2023-04-28T06:20:25;99992.50;;;15.89;37.35
18527;BME280;9393;42.158;24.748;2023-04-28T06:23:29;99991.63;;;16.29;36.58
18527;BME280;9393;42.158;24.748;2023-04-28T06:26:33;99993.41;;;16.69;36.16
18527;BME280;9393;42.158;24.748;2023-04-28T06:29:37;99998.84;;;16.51;36.66
18527;BME280;9393;42.158;24.748;2023-04-28T06:32:42;100000.06;;;16.87;36.15
18527;BME280;9393;42.158;24.748;2023-04-28T06:35:46;100004.63;;;16.93;36.30
18527;BME280;9393;42.158;24.748;2023-04-28T06:38:50;99992.03;;;17.11;35.65
18527;BME280;9393;42.158;24.748;2023-04-28T06:41:53;99999.09;;;16.80;36.43
18527;BME280;9393;42.158;24.748;2023-04-28T06:45:00;99994.53;;;17.13;35.96
18527;BME280;9393;42.158;24.748;2023-04-28T06:48:05;99999.34;;;17.01;35.70
18527;BME280;9393;42.158;24.748;2023-04-28T06:51:13;99996.38;;;16.49;36.30
18527;BME280;9393;42.158;24.748;2023-04-28T06:54:17;100001.34;;;16.99;35.05
18527;BME280;9393;42.158;24.748;2023-04-28T06:57:21;99996.47;;;17.11;35.44
18527;BME280;9393;42.158;24.748;2023-04-28T07:00:25;99996.63;;;17.17;34.45
18527;BME280;9393;42.158;24.748;2023-04-28T07:03:30;99998.75;;;17.45;34.52
18527;BME280;9393;42.158;24.748;2023-04-28T07:06:34;99996.81;;;17.39;34.28
18527;BME280;9393;42.158;24.748;2023-04-28T07:09:38;99997.69;;;17.31;34.85
18527;BME280;9393;42.158;24.748;2023-04-28T07:12:42;99994.44;;;18.20;33.79
18527;BME280;9393;42.158;24.748;2023-04-28T07:15:46;100002.16;;;18.22;33.42
18527;BME280;9393;42.158;24.748;2023-04-28T07:18:51;99997.53;;;18.38;33.03
18527;BME280;9393;42.158;24.748;2023-04-28T07:21:55;100002.41;;;19.29;32.36
18527;BME280;9393;42.158;24.748;2023-04-28T07:24:59;100004.13;;;19.37;31.47
18527;BME280;9393;42.158;24.748;2023-04-28T07:28:03;99996.25;;;19.58;31.18
18527;BME280;9393;42.158;24.748;2023-04-28T07:31:08;99992.66;;;20.14;31.22
18527;BME280;9393;42.158;24.748;2023-04-28T07:34:13;99995.56;;;20.20;30.91
18527;BME280;9393;42.158;24.748;2023-04-28T07:37:17;99999.34;;;20.32;31.00
18527;BME280;9393;42.158;24.748;2023-04-28T07:40:21;99996.91;;;20.64;30.65
18527;BME280;9393;42.158;24.748;2023-04-28T07:43:25;99994.22;;;19.81;31.44
18527;BME280;9393;42.158;24.748;2023-04-28T07:46:28;99992.59;;;20.29;30.37
18527;BME280;9393;42.158;24.748;2023-04-28T07:49:34;99995.00;;;20.58;30.79
18527;BME280;9393;42.158;24.748;2023-04-28T07:52:37;99986.00;;;20.87;29.94
18527;BME280;9393;42.158;24.748;2023-04-28T07:55:41;99986.03;;;20.94;29.84
18527;BME280;9393;42.158;24.748;2023-04-28T07:58:47;99979.81;;;20.39;30.17
18527;BME280;9393;42.158;24.748;2023-04-28T08:01:50;99982.50;;;20.46;30.00
18527;BME280;9393;42.158;24.748;2023-04-28T08:04:56;99982.38;;;21.01;29.92
18527;BME280;9393;42.158;24.748;2023-04-28T08:08:00;99973.06;;;21.12;30.02
18527;BME280;9393;42.158;24.748;2023-04-28T08:11:04;99970.06;;;21.28;30.08
18527;BME280;9393;42.158;24.748;2023-04-28T08:14:09;99967.13;;;20.28;30.67
18527;BME280;9393;42.158;24.748;2023-04-28T08:17:12;99963.44;;;20.01;30.63
18527;BME280;9393;42.158;24.748;2023-04-28T08:20:18;99972.97;;;19.17;31.81
18527;BME280;9393;42.158;24.748;2023-04-28T08:23:25;99968.69;;;19.95;30.99
18527;BME280;9393;42.158;24.748;2023-04-28T08:26:32;99969.09;;;20.20;31.37
18527;BME280;9393;42.158;24.748;2023-04-28T08:29:35;99968.84;;;20.42;30.37
18527;BME280;9393;42.158;24.748;2023-04-28T08:32:40;99957.00;;;21.27;29.59
18527;BME280;9393;42.158;24.748;2023-04-28T08:35:45;99955.66;;;20.55;30.66
18527;BME280;9393;42.158;24.748;2023-04-28T08:38:49;99960.41;;;20.66;31.41
18527;BME280;9393;42.158;24.748;2023-04-28T08:41:55;99960.91;;;20.83;31.07
18527;BME280;9393;42.158;24.748;2023-04-28T08:44:59;99945.59;;;21.26;30.45
18527;BME280;9393;42.158;24.748;2023-04-28T08:48:04;99951.31;;;21.30;30.54
18527;BME280;9393;42.158;24.748;2023-04-28T08:51:14;99946.00;;;21.43;30.83
18527;BME280;9393;42.158;24.748;2023-04-28T08:54:19;99946.25;;;21.81;31.03
18527;BME280;9393;42.158;24.748;2023-04-28T08:57:33;99945.66;;;21.98;30.98
18527;BME280;9393;42.158;24.748;2023-04-28T09:00:40;99944.00;;;21.64;31.11
18527;BME280;9393;42.158;24.748;2023-04-28T09:03:44;99943.94;;;21.19;31.51
18527;BME280;9393;42.158;24.748;2023-04-28T09:06:50;99944.19;;;21.50;31.63
18527;BME280;9393;42.158;24.748;2023-04-28T09:10:15;99936.22;;;21.56;30.92
18527;BME280;9393;42.158;24.748;2023-04-28T09:13:24;99930.31;;;21.67;31.24
18527;BME280;9393;42.158;24.748;2023-04-28T09:16:38;99939.13;;;21.94;31.17
18527;BME280;9393;42.158;24.748;2023-04-28T09:19:43;99937.88;;;22.03;30.46
18527;BME280;9393;42.158;24.748;2023-04-28T09:22:49;99932.81;;;21.95;30.64
18527;BME280;9393;42.158;24.748;2023-04-28T09:25:58;99933.38;;;22.04;29.83
18527;BME280;9393;42.158;24.748;2023-04-28T09:29:10;99925.75;;;20.61;32.23
18527;BME280;9393;42.158;24.748;2023-04-28T09:32:16;99922.84;;;20.50;32.05
18527;BME280;9393;42.158;24.748;2023-04-28T09:35:38;99918.03;;;20.32;32.45
18527;BME280;9393;42.158;24.748;2023-04-28T09:38:44;99917.16;;;20.25;32.82
18527;BME280;9393;42.158;24.748;2023-04-28T09:41:47;99916.75;;;19.94;31.90
18527;BME280;9393;42.158;24.748;2023-04-28T09:44:52;99920.53;;;19.57;31.58
18527;BME280;9393;42.158;24.748;2023-04-28T09:48:08;99917.81;;;19.50;32.83
18527;BME280;9393;42.158;24.748;2023-04-28T09:51:19;99912.44;;;19.93;32.95
18527;BME280;9393;42.158;24.748;2023-04-28T09:54:25;99903.47;;;20.49;32.54
18527;BME280;9393;42.158;24.748;2023-04-28T09:57:32;99898.59;;;21.13;31.33
18527;BME280;9393;42.158;24.748;2023-04-28T10:00:38;99894.97;;;21.28;30.34
18527;BME280;9393;42.158;24.748;2023-04-28T10:03:43;99895.81;;;21.61;30.67
18527;BME280;9393;42.158;24.748;2023-04-28T10:06:48;99883.53;;;20.60;31.38
18527;BME280;9393;42.158;24.748;2023-04-28T10:09:54;99891.25;;;21.09;30.78
18527;BME280;9393;42.158;24.748;2023-04-28T10:12:59;99884.97;;;21.76;29.32
18527;BME280;9393;42.158;24.748;2023-04-28T10:16:06;99887.44;;;21.90;28.76
18527;BME280;9393;42.158;24.748;2023-04-28T10:19:10;99884.78;;;21.97;28.57
18527;BME280;9393;42.158;24.748;2023-04-28T10:22:28;99876.78;;;22.17;29.09
18527;BME280;9393;42.158;24.748;2023-04-28T10:25:36;99877.84;;;22.60;28.06
18527;BME280;9393;42.158;24.748;2023-04-28T10:28:45;99873.47;;;22.28;28.29
18527;BME280;9393;42.158;24.748;2023-04-28T10:32:16;99875.66;;;22.50;27.48
18527;BME280;9393;42.158;24.748;2023-04-28T10:35:47;99867.56;;;22.26;28.90
18527;BME280;9393;42.158;24.748;2023-04-28T10:39:09;99860.84;;;22.74;28.57
18527;BME280;9393;42.158;24.748;2023-04-28T10:42:52;99861.72;;;22.55;29.00
18527;BME280;9393;42.158;24.748;2023-04-28T10:46:05;99855.16;;;22.71;28.93
18527;BME280;9393;42.158;24.748;2023-04-28T10:49:09;99848.91;;;22.39;28.78
18527;BME280;9393;42.158;24.748;2023-04-28T10:56:04;99844.06;;;23.43;26.79
18527;BME280;9393;42.158;24.748;2023-04-28T10:59:27;99842.53;;;23.22;27.17
18527;BME280;9393;42.158;24.748;2023-04-28T11:02:39;99841.56;;;23.17;27.16
18527;BME280;9393;42.158;24.748;2023-04-28T11:06:18;99841.72;;;23.22;27.54
18527;BME280;9393;42.158;24.748;2023-04-28T11:09:46;99841.19;;;23.44;27.60
18527;BME280;9393;42.158;24.748;2023-04-28T11:13:24;99839.78;;;22.66;27.93
18527;BME280;9393;42.158;24.748;2023-04-28T11:16:30;99829.03;;;21.90;29.31
18527;BME280;9393;42.158;24.748;2023-04-28T11:19:36;99835.16;;;21.84;29.17
18527;BME280;9393;42.158;24.748;2023-04-28T11:22:40;99839.44;;;21.98;29.25
18527;BME280;9393;42.158;24.748;2023-04-28T11:25:53;99828.00;;;21.78;29.55
18527;BME280;9393;42.158;24.748;2023-04-28T11:28:56;99822.50;;;21.14;29.77
18527;BME280;9393;42.158;24.748;2023-04-28T11:32:03;99827.59;;;21.94;29.64
18527;BME280;9393;42.158;24.748;2023-04-28T11:35:07;99830.63;;;22.04;29.73
18527;BME280;9393;42.158;24.748;2023-04-28T11:38:11;99824.84;;;22.27;29.26
18527;BME280;9393;42.158;24.748;2023-04-28T11:41:15;99817.25;;;22.31;29.25
18527;BME280;9393;42.158;24.748;2023-04-28T11:44:20;99821.50;;;23.45;28.55
18527;BME280;9393;42.158;24.748;2023-04-28T11:47:32;99818.75;;;22.71;28.68
18527;BME280;9393;42.158;24.748;2023-04-28T11:50:37;99816.75;;;22.02;29.60
18527;BME280;9393;42.158;24.748;2023-04-28T11:53:41;99812.72;;;21.54;29.78
18527;BME280;9393;42.158;24.748;2023-04-28T11:56:45;99811.66;;;21.81;29.77
18527;BME280;9393;42.158;24.748;2023-04-28T11:59:50;99796.50;;;22.08;29.57
18527;BME280;9393;42.158;24.748;2023-04-28T12:02:55;99799.78;;;22.03;29.46
18527;BME280;9393;42.158;24.748;2023-04-28T12:05:59;99791.56;;;22.18;28.95
18527;BME280;9393;42.158;24.748;2023-04-28T12:09:14;99795.38;;;21.25;29.77
18527;BME280;9393;42.158;24.748;2023-04-28T12:12:27;99783.53;;;21.28;29.74
18527;BME280;9393;42.158;24.748;2023-04-28T12:15:51;99781.94;;;21.27;29.64
18527;BME280;9393;42.158;24.748;2023-04-28T12:18:58;99766.41;;;21.17;29.69
18527;BME280;9393;42.158;24.748;2023-04-28T12:22:04;99766.00;;;21.40;29.42
18527;BME280;9393;42.158;24.748;2023-04-28T12:25:10;99761.66;;;21.72;29.38
18527;BME280;9393;42.158;24.748;2023-04-28T12:28:14;99757.00;;;20.82;30.03
18527;BME280;9393;42.158;24.748;2023-04-28T12:31:18;99752.13;;;21.44;29.69
18527;BME280;9393;42.158;24.748;2023-04-28T12:34:23;99740.88;;;21.49;29.65
18527;BME280;9393;42.158;24.748;2023-04-28T12:37:28;99740.44;;;21.65;29.35
18527;BME280;9393;42.158;24.748;2023-04-28T12:40:32;99735.81;;;21.41;29.26
18527;BME280;9393;42.158;24.748;2023-04-28T12:43:36;99736.56;;;21.61;28.88
18527;BME280;9393;42.158;24.748;2023-04-28T12:46:42;99734.13;;;21.53;29.87
18527;BME280;9393;42.158;24.748;2023-04-28T12:49:47;99734.44;;;21.89;29.52
18527;BME280;9393;42.158;24.748;2023-04-28T12:52:54;99727.91;;;21.98;29.51
18527;BME280;9393;42.158;24.748;2023-04-28T12:55:59;99728.81;;;21.59;29.67
18527;BME280;9393;42.158;24.748;2023-04-28T12:59:03;99720.09;;;21.26;30.43
18527;BME280;9393;42.158;24.748;2023-04-28T13:02:07;99712.13;;;21.39;29.92
18527;BME280;9393;42.158;24.748;2023-04-28T13:05:12;99706.75;;;21.59;29.67
18527;BME280;9393;42.158;24.748;2023-04-28T13:08:16;99710.91;;;21.29;30.31
18527;BME280;9393;42.158;24.748;2023-04-28T13:11:20;99697.69;;;21.15;30.29
18527;BME280;9393;42.158;24.748;2023-04-28T13:14:26;99696.03;;;21.14;30.54
18527;BME280;9393;42.158;24.748;2023-04-28T13:17:30;99688.47;;;21.18;30.59
18527;BME280;9393;42.158;24.748;2023-04-28T13:20:36;99690.03;;;21.65;30.07
18527;BME280;9393;42.158;24.748;2023-04-28T13:23:40;99687.16;;;21.60;29.85
18527;BME280;9393;42.158;24.748;2023-04-28T13:26:45;99686.03;;;21.30;29.32
18527;BME280;9393;42.158;24.748;2023-04-28T13:29:48;99680.72;;;21.36;29.91
18527;BME280;9393;42.158;24.748;2023-04-28T13:32:52;99673.34;;;21.32;29.98
18527;BME280;9393;42.158;24.748;2023-04-28T13:36:00;99682.28;;;21.57;30.14
18527;BME280;9393;42.158;24.748;2023-04-28T13:39:03;99680.97;;;21.92;29.58
18527;BME280;9393;42.158;24.748;2023-04-28T13:42:07;99681.16;;;21.91;29.69
18527;BME280;9393;42.158;24.748;2023-04-28T13:45:14;99678.72;;;22.27;29.18
18527;BME280;9393;42.158;24.748;2023-04-28T13:48:19;99676.63;;;21.98;29.79
18527;BME280;9393;42.158;24.748;2023-04-28T13:51:24;99670.94;;;21.88;29.55
18527;BME280;9393;42.158;24.748;2023-04-28T13:54:29;99670.66;;;21.58;29.89
18527;BME280;9393;42.158;24.748;2023-04-28T13:57:33;99665.41;;;21.83;29.82
18527;BME280;9393;42.158;24.748;2023-04-28T14:00:37;99670.88;;;21.50;29.92
18527;BME280;9393;42.158;24.748;2023-04-28T14:03:41;99667.56;;;21.61;29.51
18527;BME280;9393;42.158;24.748;2023-04-28T14:06:47;99668.31;;;21.81;29.73
18527;BME280;9393;42.158;24.748;2023-04-28T14:09:51;99667.91;;;21.78;29.49
18527;BME280;9393;42.158;24.748;2023-04-28T14:12:55;99660.53;;;21.80;29.53
18527;BME280;9393;42.158;24.748;2023-04-28T14:15:59;99667.94;;;21.71;29.59
18527;BME280;9393;42.158;24.748;2023-04-28T14:19:03;99661.00;;;21.70;29.62
18527;BME280;9393;42.158;24.748;2023-04-28T14:22:09;99671.53;;;21.26;30.43
18527;BME280;9393;42.158;24.748;2023-04-28T14:25:14;99668.50;;;21.15;30.44
18527;BME280;9393;42.158;24.748;2023-04-28T14:28:19;99669.19;;;21.62;30.26
18527;BME280;9393;42.158;24.748;2023-04-28T14:31:23;99667.22;;;21.38;30.06
18527;BME280;9393;42.158;24.748;2023-04-28T14:34:27;99667.06;;;21.84;29.43
18527;BME280;9393;42.158;24.748;2023-04-28T14:37:33;99655.97;;;22.06;28.93
18527;BME280;9393;42.158;24.748;2023-04-28T14:40:36;99664.25;;;21.79;29.27
18527;BME280;9393;42.158;24.748;2023-04-28T14:43:40;99661.19;;;22.20;28.88
18527;BME280;9393;42.158;24.748;2023-04-28T14:46:44;99653.38;;;22.25;28.88
18527;BME280;9393;42.158;24.748;2023-04-28T14:49:48;99647.09;;;22.19;28.76
18527;BME280;9393;42.158;24.748;2023-04-28T14:52:55;99651.31;;;21.95;29.55
18527;BME280;9393;42.158;24.748;2023-04-28T14:56:07;99648.75;;;21.69;29.63
18527;BME280;9393;42.158;24.748;2023-04-28T14:59:20;99638.97;;;22.07;29.31
18527;BME280;9393;42.158;24.748;2023-04-28T15:02:24;99644.38;;;21.37;29.75
18527;BME280;9393;42.158;24.748;2023-04-28T15:05:30;99644.00;;;21.27;29.94
18527;BME280;9393;42.158;24.748;2023-04-28T15:08:36;99642.84;;;21.67;29.63
18527;BME280;9393;42.158;24.748;2023-04-28T15:11:41;99650.13;;;21.34;29.87
18527;BME280;9393;42.158;24.748;2023-04-28T15:14:45;99652.16;;;21.05;30.65
18527;BME280;9393;42.158;24.748;2023-04-28T15:17:49;99649.72;;;21.10;30.44
18527;BME280;9393;42.158;24.748;2023-04-28T15:20:54;99647.03;;;21.37;30.20
18527;BME280;9393;42.158;24.748;2023-04-28T15:23:59;99644.09;;;21.51;29.98
18527;BME280;9393;42.158;24.748;2023-04-28T15:27:03;99653.59;;;21.14;30.11
18527;BME280;9393;42.158;24.748;2023-04-28T15:30:08;99650.47;;;21.50;30.11
18527;BME280;9393;42.158;24.748;2023-04-28T15:33:12;99655.19;;;21.35;29.98
18527;BME280;9393;42.158;24.748;2023-04-28T15:36:19;99645.44;;;21.23;30.55
18527;BME280;9393;42.158;24.748;2023-04-28T15:39:24;99638.69;;;21.27;30.26
18527;BME280;9393;42.158;24.748;2023-04-28T15:42:29;99636.84;;;21.07;30.55
18527;BME280;9393;42.158;24.748;2023-04-28T15:45:34;99639.94;;;20.98;30.28
18527;BME280;9393;42.158;24.748;2023-04-28T15:48:39;99640.13;;;20.90;30.42
18527;BME280;9393;42.158;24.748;2023-04-28T15:51:43;99637.91;;;20.74;31.28
18527;BME280;9393;42.158;24.748;2023-04-28T15:54:48;99640.16;;;20.50;31.05
18527;BME280;9393;42.158;24.748;2023-04-28T15:57:52;99628.56;;;20.58;31.54
18527;BME280;9393;42.158;24.748;2023-04-28T16:00:56;99631.59;;;20.48;31.64
18527;BME280;9393;42.158;24.748;2023-04-28T16:04:00;99631.00;;;20.40;31.64
18527;BME280;9393;42.158;24.748;2023-04-28T16:07:05;99630.34;;;20.38;32.22
18527;BME280;9393;42.158;24.748;2023-04-28T16:10:12;99638.31;;;20.38;32.39
18527;BME280;9393;42.158;24.748;2023-04-28T16:13:16;99632.75;;;20.06;32.71
18527;BME280;9393;42.158;24.748;2023-04-28T16:16:20;99630.03;;;19.93;32.85
18527;BME280;9393;42.158;24.748;2023-04-28T16:19:23;99631.66;;;19.81;33.43
18527;BME280;9393;42.158;24.748;2023-04-28T16:22:27;99627.78;;;19.77;32.90
18527;BME280;9393;42.158;24.748;2023-04-28T16:25:33;99631.97;;;19.58;32.99
18527;BME280;9393;42.158;24.748;2023-04-28T16:28:37;99627.09;;;19.62;32.87